Time;durP1;ratioP1;P1;durP2;ratioP2;P2;SDS_P1;SDS_P2;PMS_P1;PMS_P2;Temp;Humidity;BMP_temperature;BMP_pressure;BME280_temperature;BME280_humidity;BME280_pressure;Samples;Min_cycle;Max_cycle;Signal;HPM_P1;HPM_P2
2023/06/09 00:00:55;;;;;;;7.20;6.50;;;19.90;99.90;;;;;;5059456;28;20526;-80
2023/06/09 00:03:23;;;;;;;6.90;6.20;;;19.90;99.90;;;;;;5058969;28;21089;-81
2023/06/09 00:05:50;;;;;;;7.53;5.90;;;19.90;99.90;;;;;;5059241;28;20448;-81
2023/06/09 00:08:17;;;;;;;7.20;6.50;;;19.90;99.90;;;;;;5059501;28;20484;-80
2023/06/09 00:10:44;;;;;;;7.23;6.37;;;19.90;99.90;;;;;;5060689;28;20451;-80
2023/06/09 00:13:11;;;;;;;7.77;6.80;;;19.80;1.00;;;;;;5060307;28;20515;-80
2023/06/09 00:15:39;;;;;;;7.30;6.13;;;19.80;99.90;;;;;;5060211;28;20467;-80
2023/06/09 00:18:06;;;;;;;7.00;6.23;;;19.70;99.90;;;;;;5059497;28;20510;-78
2023/06/09 00:20:34;;;;;;;9.83;6.60;;;19.70;99.90;;;;;;5060306;28;20482;-79
2023/06/09 00:23:02;;;;;;;6.67;6.07;;;19.60;99.90;;;;;;5056823;28;20486;-78
2023/06/09 00:25:29;;;;;;;7.10;6.30;;;19.60;99.90;;;;;;5058863;28;20444;-79
2023/06/09 00:27:56;;;;;;;8.80;7.30;;;19.50;1.00;;;;;;5060562;28;20476;-79
2023/06/09 00:30:24;;;;;;;8.30;6.83;;;19.50;1.00;;;;;;5059849;28;20550;-79
2023/06/09 00:32:50;;;;;;;8.30;6.37;;;19.50;99.90;;;;;;5059377;28;21051;-79
2023/06/09 00:35:17;;;;;;;7.27;6.53;;;19.40;99.90;;;;;;5060138;28;20450;-79
2023/06/09 00:37:48;;;;;;;7.60;6.33;;;19.40;99.90;;;;;;5059441;28;20576;-79
2023/06/09 00:40:15;;;;;;;7.67;6.70;;;19.30;99.90;;;;;;5056793;28;20455;-79
2023/06/09 00:42:41;;;;;;;8.73;7.10;;;19.30;1.00;;;;;;5057755;28;20458;-79
2023/06/09 00:45:09;;;;;;;8.60;6.53;;;19.30;21.90;;;;;;5056474;28;20462;-79
2023/06/09 00:47:36;;;;;;;9.13;7.40;;;19.20;99.90;;;;;;5058116;28;20474;-78
2023/06/09 00:50:04;;;;;;;8.93;7.00;;;19.20;1.00;;;;;;5058561;28;20462;-78
2023/06/09 00:52:32;;;;;;;7.57;6.90;;;19.10;55.90;;;;;;5058089;28;20483;-78
2023/06/09 00:55:00;;;;;;;9.00;8.07;;;19.10;99.90;;;;;;5057281;28;20448;-78
2023/06/09 00:57:29;;;;;;;7.93;6.30;;;19.10;99.90;;;;;;5058433;28;20869;-78
2023/06/09 00:59:57;;;;;;;8.93;7.83;;;19.10;92.80;;;;;;5058916;28;20513;-78
2023/06/09 01:02:24;;;;;;;7.37;6.67;;;19.00;99.90;;;;;;5057834;28;20898;-79
2023/06/09 01:04:52;;;;;;;9.60;7.20;;;19.00;99.90;;;;;;5058765;28;20452;-78
2023/06/09 01:07:30;;;;;;;10.40;7.70;;;19.00;99.90;;;;;;5059686;28;20470;-79
2023/06/09 01:10:05;;;;;;;7.90;7.10;;;18.90;1.00;;;;;;5059511;28;20789;-78
2023/06/09 01:12:44;;;;;;;12.10;7.07;;;18.90;1.00;;;;;;5057846;28;20551;-78
2023/06/09 01:15:17;;;;;;;10.97;7.17;;;18.90;99.90;;;;;;5059502;28;20809;-79
2023/06/09 01:17:48;;;;;;;8.40;6.73;;;18.90;45.50;;;;;;5058743;28;20517;-79
2023/06/09 01:20:23;;;;;;;8.70;7.80;;;18.90;12.70;;;;;;5057904;28;20448;-79
2023/06/09 01:22:57;;;;;;;10.27;7.20;;;18.90;99.90;;;;;;5057613;28;20913;-78
2023/06/09 01:25:34;;;;;;;8.00;7.20;;;18.90;99.90;;;;;;5059768;28;20994;-78
2023/06/09 01:28:04;;;;;;;8.00;7.20;;;18.90;1.00;;;;;;5058494;28;20804;-78
2023/06/09 01:30:33;;;;;;;9.37;7.47;;;18.90;1.00;;;;;;5054651;28;20942;-78
2023/06/09 01:33:01;;;;;;;9.33;7.20;;;18.90;1.00;;;;;;5053820;28;20483;-78
2023/06/09 01:35:29;;;;;;;9.23;6.83;;;18.90;12.30;;;;;;5054049;28;20460;-78
2023/06/09 01:37:57;;;;;;;10.77;7.20;;;18.90;99.90;;;;;;5055404;28;20821;-78
2023/06/09 01:40:24;;;;;;;8.13;7.03;;;18.90;62.70;;;;;;5055302;28;20456;-78
2023/06/09 01:42:53;;;;;;;10.50;7.33;;;18.90;1.00;;;;;;5053792;28;20816;-78
2023/06/09 01:45:20;;;;;;;8.30;7.40;;;18.80;1.00;;;;;;5053027;28;20465;-78
2023/06/09 01:47:47;;;;;;;8.37;6.90;;;18.80;99.90;;;;;;5054774;28;20845;-78
2023/06/09 01:50:22;;;;;;;7.40;6.67;;;18.80;99.90;;;;;;5054135;28;20458;-78
2023/06/09 01:52:54;;;;;;;8.83;7.50;;;18.70;1.00;;;;;;5053626;28;20468;-78
2023/06/09 01:55:25;;;;;;;10.57;7.30;;;18.70;45.40;;;;;;5059242;28;20431;-78
2023/06/09 01:57:57;;;;;;;7.63;6.83;;;18.70;1.00;;;;;;5058724;28;20837;-78
2023/06/09 02:00:26;;;;;;;10.13;7.43;;;18.70;99.90;;;;;;5058236;28;20458;-78
2023/06/09 02:02:56;;;;;;;12.30;7.60;;;18.70;1.00;;;;;;5057958;28;20479;-78
2023/06/09 02:05:24;;;;;;;8.90;7.23;;;18.60;99.90;;;;;;5058309;28;20458;-79
2023/06/09 02:07:53;;;;;;;9.00;7.50;;;18.60;99.90;;;;;;5058872;28;20468;-78
2023/06/09 02:10:22;;;;;;;8.50;6.93;;;18.60;99.90;;;;;;5058201;28;20461;-78
2023/06/09 02:12:49;;;;;;;11.20;7.30;;;18.50;99.90;;;;;;5057755;28;20482;-78
2023/06/09 02:15:18;;;;;;;11.00;7.23;;;18.50;99.90;;;;;;5057991;28;20450;-78
2023/06/09 02:17:45;;;;;;;7.93;7.10;;;18.50;99.90;;;;;;5058169;28;20469;-78
2023/06/09 02:20:13;;;;;;;10.97;8.33;;;18.50;5.40;;;;;;5058404;28;20455;-78
2023/06/09 02:22:40;;;;;;;7.83;6.50;;;18.50;12.70;;;;;;5057335;28;20572;-78
2023/06/09 02:25:08;;;;;;;7.90;7.10;;;18.50;1.00;;;;;;5058718;28;20455;-79
2023/06/09 02:27:35;;;;;;;10.50;7.93;;;18.40;96.10;;;;;;5059044;28;20470;-78
2023/06/09 02:30:02;;;;;;;7.90;6.60;;;18.40;99.90;;;;;;5058690;28;20455;-78
2023/06/09 02:32:30;;;;;;;9.50;7.40;;;18.40;99.90;;;;;;5057607;28;20456;-78
2023/06/09 02:34:58;;;;;;;7.60;6.47;;;18.30;1.00;;;;;;5059140;28;20450;-78
2023/06/09 02:37:25;;;;;;;8.70;7.30;;;18.30;67.30;;;;;;5058804;28;20475;-78
2023/06/09 02:39:51;;;;;;;9.67;7.53;;;18.20;99.90;;;;;;5058277;28;20794;-78
2023/06/09 02:42:18;;;;;;;12.20;8.00;;;18.20;99.90;;;;;;5058355;28;20461;-78
2023/06/09 02:44:48;;;;;;;11.50;7.50;;;18.20;99.90;;;;;;5056383;28;20451;-78
2023/06/09 02:47:15;;;;;;;8.40;7.50;;;18.20;99.90;;;;;;5057770;28;20904;-77
2023/06/09 02:49:43;;;;;;;11.33;7.67;;;18.10;99.90;;;;;;5057659;28;20454;-78
2023/06/09 02:52:10;;;;;;;9.23;8.13;;;18.10;1.00;;;;;;5057391;28;20458;-78
2023/06/09 02:54:37;;;;;;;8.67;7.37;;;18.10;1.00;;;;;;5057006;28;20494;-78
2023/06/09 02:57:06;;;;;;;8.33;7.37;;;18.00;1.00;;;;;;5057219;28;20454;-78
2023/06/09 02:59:33;;;;;;;9.63;7.30;;;18.00;1.00;;;;;;5057842;28;20456;-78
2023/06/09 03:02:00;;;;;;;10.20;8.73;;;18.00;1.00;;;;;;5057211;28;20969;-78
2023/06/09 03:04:27;;;;;;;9.33;8.27;;;18.00;1.00;;;;;;5056110;28;20443;-78
2023/06/09 03:06:56;;;;;;;11.37;8.40;;;17.90;1.00;;;;;;5057096;28;20504;-78
2023/06/09 03:09:23;;;;;;;11.53;8.50;;;17.80;18.40;;;;;;5057705;28;20476;-78
2023/06/09 03:11:49;;;;;;;9.03;7.97;;;17.80;51.00;;;;;;5057247;28;20458;-79
2023/06/09 03:14:16;;;;;;;9.23;8.33;;;17.80;99.90;;;;;;5057296;28;20599;-78
2023/06/09 03:16:43;;;;;;;8.93;7.53;;;17.80;99.90;;;;;;5057936;28;20458;-78
2023/06/09 03:19:10;;;;;;;8.80;7.90;;;17.80;99.90;;;;;;5057982;28;20467;-78
2023/06/09 03:21:37;;;;;;;8.63;7.80;;;17.80;99.90;;;;;;5057638;28;20449;-78
2023/06/09 03:24:07;;;;;;;10.00;9.00;;;17.70;99.90;;;;;;5056544;28;20449;-78
2023/06/09 03:26:34;;;;;;;10.63;9.53;;;17.80;99.90;;;;;;5057450;28;20536;-79
2023/06/09 03:29:01;;;;;;;10.07;9.07;;;17.70;99.90;;;;;;5057511;28;20469;-78
2023/06/09 03:31:27;;;;;;;10.70;9.43;;;17.70;99.90;;;;;;5057892;28;20460;-77
2023/06/09 03:33:55;;;;;;;10.00;8.47;;;17.70;99.90;;;;;;5055778;28;20497;-78
2023/06/09 03:36:22;;;;;;;9.90;8.93;;;17.70;99.90;;;;;;5055682;28;20464;-78
2023/06/09 03:38:49;;;;;;;11.13;9.67;;;17.70;99.90;;;;;;5055461;28;20568;-78
2023/06/09 03:41:17;;;;;;;10.03;8.93;;;17.70;99.90;;;;;;5055224;28;20869;-78
2023/06/09 03:43:44;;;;;;;11.77;9.83;;;17.60;99.90;;;;;;5053048;28;20452;-78
2023/06/09 03:46:11;;;;;;;11.03;9.90;;;17.60;99.90;;;;;;5054550;28;20457;-77
2023/06/09 03:48:38;;;;;;;11.00;9.47;;;17.60;99.90;;;;;;5055157;28;20481;-78
2023/06/09 03:51:05;;;;;;;11.00;8.90;;;17.60;99.90;;;;;;5054488;28;20451;-78
2023/06/09 03:53:32;;;;;;;10.23;9.23;;;17.60;99.90;;;;;;5053952;28;20488;-78
2023/06/09 03:55:59;;;;;;;9.70;8.30;;;17.60;99.90;;;;;;5054777;28;20547;-77
2023/06/09 03:58:27;;;;;;;10.87;9.80;;;17.60;99.90;;;;;;5054587;28;20495;-78
2023/06/09 04:00:54;;;;;;;10.67;9.57;;;17.60;99.90;;;;;;5054618;28;20833;-78
2023/06/09 04:03:22;;;;;;;10.93;9.60;;;17.60;99.90;;;;;;5053724;28;20843;-78
2023/06/09 04:05:49;;;;;;;10.07;9.07;;;17.60;99.90;;;;;;5053883;28;20459;-77
2023/06/09 04:08:16;;;;;;;12.27;10.70;;;17.60;99.90;;;;;;5054473;28;21014;-78
2023/06/09 04:10:43;;;;;;;12.20;10.30;;;17.60;99.90;;;;;;5054548;28;20452;-78
2023/06/09 04:13:11;;;;;;;10.93;9.93;;;17.60;99.90;;;;;;5053292;28;20449;-77
2023/06/09 04:15:39;;;;;;;15.17;10.73;;;17.60;99.90;;;;;;5053870;28;20516;-78
2023/06/09 04:18:06;;;;;;;13.33;9.70;;;17.70;99.90;;;;;;5054733;28;20449;-78
2023/06/09 04:20:34;;;;;;;13.43;11.27;;;17.70;99.90;;;;;;5053653;28;20478;-78
2023/06/09 04:23:01;;;;;;;11.50;10.30;;;17.70;99.90;;;;;;5053280;28;20462;-78
2023/06/09 04:25:28;;;;;;;11.43;10.33;;;17.70;99.90;;;;;;5054001;28;20486;-78
2023/06/09 04:27:55;;;;;;;17.73;11.20;;;17.80;99.90;;;;;;5054393;28;20474;-78
2023/06/09 04:30:25;;;;;;;12.50;9.70;;;17.80;99.90;;;;;;5054185;28;20454;-78
2023/06/09 04:32:53;;;;;;;10.80;9.67;;;17.80;99.90;;;;;;5052892;28;20461;-78
2023/06/09 04:35:20;;;;;;;11.03;9.60;;;17.90;99.90;;;;;;5053542;28;20484;-77
2023/06/09 04:37:48;;;;;;;11.77;10.57;;;17.90;99.90;;;;;;5053638;28;20964;-79
2023/06/09 04:40:21;;;;;;;11.80;9.63;;;18.00;99.90;;;;;;5053552;28;20516;-78
2023/06/09 04:42:51;;;;;;;11.53;10.43;;;18.00;99.90;;;;;;5052929;28;20525;-78
2023/06/09 04:45:18;;;;;;;10.80;9.70;;;18.10;99.90;;;;;;5052254;28;20828;-78
2023/06/09 04:47:46;;;;;;;13.30;11.67;;;18.10;99.90;;;;;;5053555;28;20975;-78
2023/06/09 04:50:15;;;;;;;10.73;9.80;;;18.10;99.90;;;;;;5053920;28;20507;-77
2023/06/09 04:52:42;;;;;;;14.67;10.70;;;18.20;99.90;;;;;;5052704;28;20523;-77
2023/06/09 04:55:09;;;;;;;11.47;10.27;;;18.20;99.90;;;;;;5053768;28;20490;-78
2023/06/09 04:57:36;;;;;;;12.27;10.97;;;18.30;99.90;;;;;;5052761;28;20565;-78
2023/06/09 05:00:16;;;;;;;13.23;11.37;;;18.30;99.90;;;;;;5054494;28;20516;-78
2023/06/09 05:02:44;;;;;;;10.30;9.40;;;18.40;99.90;;;;;;5053042;28;20439;-79
2023/06/09 05:05:12;;;;;;;12.73;11.37;;;18.50;99.90;;;;;;5053877;28;20948;-80
2023/06/09 05:07:40;;;;;;;14.53;11.20;;;18.50;99.90;;;;;;5053909;28;20489;-79
2023/06/09 05:10:08;;;;;;;12.40;11.20;;;18.60;99.90;;;;;;5054114;28;20459;-79
2023/06/09 05:12:36;;;;;;;13.00;11.17;;;18.70;99.90;;;;;;5053104;28;20458;-79
2023/06/09 05:15:03;;;;;;;12.83;11.50;;;18.70;99.90;;;;;;5053860;28;21051;-79
2023/06/09 05:17:30;;;;;;;12.17;11.00;;;18.70;99.90;;;;;;5054001;28;20467;-79
2023/06/09 05:19:56;;;;;;;12.30;11.07;;;18.80;99.90;;;;;;5054318;28;20523;-80
2023/06/09 05:22:23;;;;;;;12.00;10.80;;;18.90;1.00;;;;;;5053487;28;20459;-79
2023/06/09 05:24:51;;;;;;;12.70;11.40;;;18.90;13.30;;;;;;5054396;28;20537;-79
2023/06/09 05:27:18;;;;;;;13.03;11.73;;;18.90;41.20;;;;;;5054323;28;20475;-79
2023/06/09 05:29:45;;;;;;;13.47;12.07;;;19.00;1.00;;;;;;5058144;28;21030;-80
2023/06/09 05:32:12;;;;;;;12.10;10.90;;;19.10;13.30;;;;;;5058148;28;20447;-79
2023/06/09 05:34:39;;;;;;;12.70;10.73;;;19.20;1.00;;;;;;5057805;28;20487;-79
2023/06/09 05:37:06;;;;;;;12.43;11.13;;;19.20;1.00;;;;;;5058410;28;20455;-79
2023/06/09 05:39:33;;;;;;;13.03;11.63;;;19.30;99.90;;;;;;5057977;28;20447;-80
2023/06/09 05:42:01;;;;;;;10.90;9.90;;;19.40;1.00;;;;;;5058483;28;20452;-80
2023/06/09 05:44:28;;;;;;;12.67;11.40;;;19.50;1.00;;;;;;5055243;28;20450;-80
2023/06/09 05:46:56;;;;;;;11.23;10.20;;;19.50;1.00;;;;;;5057610;28;20486;-80
2023/06/09 05:49:23;;;;;;;14.43;11.57;;;19.60;99.90;;;;;;5058726;28;20812;-82
2023/06/09 05:51:50;;;;;;;11.67;10.53;;;19.70;1.00;;;;;;5060957;28;20454;-83
2023/06/09 05:54:17;;;;;;;13.10;11.80;;;19.70;1.00;;;;;;5059568;28;20511;-82
2023/06/09 05:56:44;;;;;;;11.57;10.47;;;19.80;99.90;;;;;;5061384;28;20455;-82
2023/06/09 05:59:13;;;;;;;11.60;10.40;;;19.80;99.90;;;;;;5060814;28;20490;-82
2023/06/09 06:01:41;;;;;;;12.57;11.37;;;19.90;99.90;;;;;;5060751;28;20454;-82
2023/06/09 06:04:08;;;;;;;11.30;10.20;;;19.90;57.40;;;;;;5059915;28;20455;-82
2023/06/09 06:06:37;;;;;;;10.73;9.47;;;19.90;99.90;;;;;;5060873;28;20543;-82
2023/06/09 06:09:04;;;;;;;10.23;9.27;;;20.00;1.00;;;;;;5060499;28;20478;-80
2023/06/09 06:11:31;;;;;;;10.73;9.73;;;20.10;37.60;;;;;;5060157;28;20498;-83
2023/06/09 06:13:58;;;;;;;11.63;10.13;;;20.10;1.00;;;;;;5059968;28;20895;-82
2023/06/09 06:16:26;;;;;;;10.90;9.67;;;20.20;99.90;;;;;;5060000;28;20447;-82
2023/06/09 06:18:53;;;;;;;10.17;9.17;;;20.20;99.90;;;;;;5060684;28;21063;-82
2023/06/09 06:21:20;;;;;;;12.10;9.80;;;20.30;99.90;;;;;;5059973;28;20448;-82
2023/06/09 06:23:47;;;;;;;9.87;8.93;;;20.40;1.00;;;;;;5059645;28;20509;-82
2023/06/09 06:26:14;;;;;;;10.70;9.43;;;20.40;99.90;;;;;;5059088;28;20458;-82
2023/06/09 06:28:40;;;;;;;10.90;10.00;;;20.50;1.00;;;;;;5060277;28;20470;-81
2023/06/09 06:31:08;;;;;;;10.90;9.80;;;20.60;1.00;;;;;;5059193;28;20450;-82
2023/06/09 06:33:36;;;;;;;12.40;10.30;;;20.70;1.00;;;;;;5059080;28;20444;-81
2023/06/09 06:36:03;;;;;;;11.10;9.20;;;20.70;99.90;;;;;;5059394;28;20487;-82
2023/06/09 06:38:30;;;;;;;11.70;9.53;;;20.80;1.00;;;;;;5059428;28;20486;-80
2023/06/09 06:40:57;;;;;;;9.47;8.57;;;20.80;99.90;;;;;;5057898;28;20447;-80
2023/06/09 06:43:24;;;;;;;10.57;9.47;;;20.90;1.00;;;;;;5057617;28;20904;-80
2023/06/09 06:45:51;;;;;;;12.07;9.50;;;21.00;1.00;;;;;;5059130;28;20451;-80
2023/06/09 06:48:17;;;;;;;10.23;9.23;;;21.10;1.00;;;;;;5059316;28;20476;-81
2023/06/09 06:50:46;;;;;;;9.87;8.93;;;21.10;99.90;;;;;;5058979;28;20834;-81
2023/06/09 06:53:12;;;;;;;10.57;9.50;;;21.20;99.90;;;;;;5058483;28;20480;-81
2023/06/09 06:55:39;;;;;;;10.83;9.83;;;21.20;99.90;;;;;;5058751;28;20484;-80
2023/06/09 06:58:06;;;;;;;9.83;8.93;;;21.30;99.90;;;;;;5058911;28;20476;-81
2023/06/09 07:00:35;;;;;;;9.50;8.53;;;21.40;99.90;;;;;;5058694;28;20956;-81
2023/06/09 07:03:02;;;;;;;9.40;8.40;;;21.50;99.90;;;;;;5058172;28;21016;-80
2023/06/09 07:05:29;;;;;;;13.20;11.80;;;21.60;99.90;;;;;;5057986;28;20971;-81
2023/06/09 07:07:57;;;;;;;9.10;8.20;;;21.60;99.90;;;;;;5058965;28;20479;-81
2023/06/09 07:10:24;;;;;;;10.00;9.00;;;21.70;7.80;;;;;;5058410;28;20448;-82
2023/06/09 07:12:50;;;;;;;11.50;8.73;;;21.70;20.70;;;;;;5057722;28;20810;-81
2023/06/09 07:15:17;;;;;;;10.30;9.30;;;21.80;11.10;;;;;;5057772;28;20491;-81
2023/06/09 07:17:44;;;;;;;9.23;8.40;;;21.90;1.00;;;;;;5058954;28;20476;-81
2023/06/09 07:20:12;;;;;;;9.30;8.10;;;22.00;1.00;;;;;;5058741;28;20483;-81
2023/06/09 07:22:40;;;;;;;9.43;8.40;;;22.00;1.00;;;;;;5056936;28;20448;-81
2023/06/09 07:25:09;;;;;;;10.67;9.37;;;22.10;1.00;;;;;;5057522;28;20440;-80
2023/06/09 07:27:36;;;;;;;12.87;9.67;;;22.20;1.00;;;;;;5058319;28;21080;-80
2023/06/09 07:30:03;;;;;;;10.77;9.13;;;22.30;1.00;;;;;;5058061;28;20538;-81
2023/06/09 07:32:30;;;;;;;9.83;8.93;;;22.40;1.00;;;;;;5057529;28;20451;-80
2023/06/09 07:34:59;;;;;;;9.30;8.40;;;22.40;1.00;;;;;;5058598;28;20480;-80
2023/06/09 07:37:26;;;;;;;10.60;7.90;;;22.50;99.90;;;;;;5058716;28;20482;-79
2023/06/09 07:39:53;;;;;;;9.10;8.33;;;22.60;1.00;;;;;;5058042;28;20846;-80
2023/06/09 07:42:21;;;;;;;8.77;7.97;;;22.70;1.00;;;;;;5058189;28;20470;-81
2023/06/09 07:44:48;;;;;;;9.13;7.60;;;22.70;99.90;;;;;;5057232;28;20452;-81
2023/06/09 07:47:15;;;;;;;11.10;8.00;;;22.90;99.90;;;;;;5058344;28;20555;-81
2023/06/09 07:49:41;;;;;;;8.97;8.00;;;22.90;99.90;;;;;;5057945;28;20535;-81
2023/06/09 07:52:09;;;;;;;10.53;8.07;;;23.00;99.90;;;;;;5061644;28;20555;-80
2023/06/09 07:54:36;;;;;;;9.17;7.60;;;23.10;99.90;;;;;;5061277;28;20488;-80
2023/06/09 07:57:03;;;;;;;7.93;7.13;;;23.30;99.90;;;;;;5062318;28;20460;-79
2023/06/09 07:59:31;;;;;;;9.10;8.20;;;23.40;99.90;;;;;;5061337;28;20519;-81
2023/06/09 08:01:58;;;;;;;8.20;7.50;;;23.50;99.90;;;;;;5057444;28;20463;-81
2023/06/09 08:04:25;;;;;;;8.00;7.30;;;23.50;99.90;;;;;;5056688;28;20487;-81
2023/06/09 08:06:52;;;;;;;8.57;7.70;;;23.60;99.90;;;;;;5057072;28;20863;-81
2023/06/09 08:09:19;;;;;;;9.00;7.30;;;23.70;99.90;;;;;;5057824;28;20452;-81
2023/06/09 08:11:45;;;;;;;8.50;7.63;;;23.80;99.90;;;;;;5056880;28;20523;-81
2023/06/09 08:14:13;;;;;;;10.97;6.87;;;23.90;99.90;;;;;;5056473;28;20979;-81
2023/06/09 08:16:41;;;;;;;7.90;6.93;;;24.10;99.90;;;;;;5056892;28;20495;-81
2023/06/09 08:19:07;;;;;;;8.13;7.13;;;24.10;99.90;;;;;;5057003;28;20850;-81
2023/06/09 08:21:34;;;;;;;7.23;6.53;;;24.30;72.50;;;;;;5056854;28;20470;-82
2023/06/09 08:24:01;;;;;;;9.10;7.40;;;24.40;18.90;;;;;;5055964;28;20451;-81
2023/06/09 08:26:28;;;;;;;8.57;7.63;;;24.60;23.00;;;;;;5056393;28;20456;-81
2023/06/09 08:28:55;;;;;;;9.80;7.20;;;24.70;1.00;;;;;;5057055;28;21078;-81
2023/06/09 08:31:24;;;;;;;7.43;6.73;;;24.90;1.00;;;;;;5056817;28;20470;-81
2023/06/09 08:33:53;;;;;;;6.70;6.00;;;25.00;1.00;;;;;;5056428;28;20452;-80
2023/06/09 08:36:20;;;;;;;7.23;6.53;;;25.30;1.00;;;;;;5056273;28;20534;-82
2023/06/09 08:38:47;;;;;;;6.73;6.07;;;25.50;1.00;;;;;;5057003;28;20533;-82
2023/06/09 08:41:16;;;;;;;9.50;6.70;;;25.80;1.00;;;;;;5056939;28;20455;-81
2023/06/09 08:43:43;;;;;;;6.67;5.97;;;25.90;1.00;;;;;;5053846;28;20534;-81
2023/06/09 08:46:11;;;;;;;6.67;5.90;;;26.10;1.00;;;;;;5057407;28;20459;-81
2023/06/09 08:48:44;;;;;;;8.83;6.53;;;26.10;1.00;;;;;;5057490;28;20996;-80
2023/06/09 08:51:12;;;;;;;6.00;5.40;;;26.30;1.00;;;;;;5057390;28;20439;-82
2023/06/09 08:53:40;;;;;;;7.00;6.07;;;26.50;1.00;;;;;;5057080;28;20546;-80
2023/06/09 08:56:07;;;;;;;6.57;5.97;;;26.60;1.00;;;;;;5058219;28;21003;-81
2023/06/09 08:58:35;;;;;;;10.00;8.13;;;26.60;1.00;;;;;;5057557;28;20503;-82
2023/06/09 09:01:02;;;;;;;7.90;5.83;;;26.70;1.00;;;;;;5057175;28;20462;-82
2023/06/09 09:03:29;;;;;;;5.90;5.30;;;26.90;1.00;;;;;;5055679;28;20456;-82
2023/06/09 09:05:56;;;;;;;6.80;5.93;;;27.10;1.00;;;;;;5057112;28;20451;-81
2023/06/09 09:08:24;;;;;;;7.30;5.87;;;27.30;1.00;;;;;;5057089;28;20804;-82
2023/06/09 09:10:51;;;;;;;6.50;5.90;;;27.60;1.00;;;;;;5057567;28;20535;-81
2023/06/09 09:13:19;;;;;;;7.30;5.10;;;27.90;1.00;;;;;;5056153;28;20448;-82
2023/06/09 09:15:50;;;;;;;9.53;5.53;;;28.10;1.00;;;;;;5056393;28;20488;-81
2023/06/09 09:18:17;;;;;;;6.30;5.70;;;28.30;1.00;;;;;;5056178;28;20503;-81
2023/06/09 09:20:44;;;;;;;6.10;5.23;;;28.50;1.00;;;;;;5056130;28;20448;-81
2023/06/09 09:23:11;;;;;;;5.17;4.67;;;28.70;1.00;;;;;;5055068;28;20445;-81
2023/06/09 09:25:39;;;;;;;6.07;5.47;;;28.70;1.00;;;;;;5056001;28;20451;-81
2023/06/09 09:28:07;;;;;;;5.80;4.70;;;28.80;1.00;;;;;;5056019;28;20470;-81
2023/06/09 09:30:45;;;;;;;6.33;5.70;;;28.90;99.90;;;;;;5056979;28;20531;-81
2023/06/09 09:33:13;;;;;;;6.33;5.70;;;29.00;99.90;;;;;;5055366;28;20974;-81
2023/06/09 09:35:40;;;;;;;5.97;5.37;;;29.00;99.90;;;;;;5056583;28;20490;-81
2023/06/09 09:38:13;;;;;;;5.30;4.80;;;29.20;99.90;;;;;;5055715;28;20460;-80
2023/06/09 09:40:45;;;;;;;5.87;5.27;;;29.30;99.90;;;;;;5055313;28;20971;-81
2023/06/09 09:43:12;;;;;;;6.40;5.00;;;29.30;99.90;;;;;;5053378;28;20863;-80
2023/06/09 09:45:40;;;;;;;6.43;4.63;;;29.50;99.90;;;;;;5056085;28;20462;-80
2023/06/09 09:48:12;;;;;;;8.87;5.80;;;29.60;99.90;;;;;;5054854;28;20518;-80
2023/06/09 09:50:39;;;;;;;6.30;5.20;;;29.80;99.90;;;;;;5055658;28;20440;-80
2023/06/09 09:53:07;;;;;;;7.13;5.10;;;29.90;99.90;;;;;;5053731;28;20458;-81
2023/06/09 09:55:36;;;;;;;5.13;4.63;;;30.00;99.90;;;;;;5055240;28;20497;-80
2023/06/09 09:58:06;;;;;;;5.40;4.90;;;30.00;99.90;;;;;;5054478;28;20484;-80
2023/06/09 10:00:35;;;;;;;5.17;4.67;;;30.10;99.90;;;;;;5054981;28;20440;-80
2023/06/09 10:03:06;;;;;;;6.10;5.50;;;30.40;99.90;;;;;;5054235;28;20462;-80
2023/06/09 10:05:36;;;;;;;6.07;5.10;;;30.40;99.90;;;;;;5055243;28;20436;-79
2023/06/09 10:08:06;;;;;;;7.03;5.37;;;30.50;99.90;;;;;;5053835;28;20476;-80
2023/06/09 10:10:33;;;;;;;9.27;5.60;;;30.60;99.90;;;;;;5054545;28;20455;-80
2023/06/09 10:13:02;;;;;;;6.70;6.10;;;30.70;99.90;;;;;;5053400;28;20452;-80
2023/06/09 10:15:32;;;;;;;6.10;4.87;;;30.90;99.90;;;;;;5057804;28;20487;-80
2023/06/09 10:18:00;;;;;;;7.37;5.30;;;31.10;99.90;;;;;;5058632;28;20471;-81
2023/06/09 10:20:27;;;;;;;7.80;5.40;;;31.20;99.90;;;;;;5057764;28;20460;-79
2023/06/09 10:22:55;;;;;;;7.13;5.70;;;31.00;99.90;;;;;;5058019;28;20546;-80
2023/06/09 10:25:24;;;;;;;5.53;4.90;;;31.10;99.90;;;;;;5058537;28;20444;-81
2023/06/09 10:27:51;;;;;;;5.87;4.80;;;31.30;99.90;;;;;;5057757;28;20483;-80
2023/06/09 10:30:19;;;;;;;7.53;5.73;;;31.20;99.90;;;;;;5058540;28;20460;-81
2023/06/09 10:32:52;;;;;;;6.40;5.07;;;31.40;99.90;;;;;;5057702;28;20451;-80
2023/06/09 10:35:25;;;;;;;4.80;4.10;;;31.70;99.90;;;;;;5057565;28;20452;-80
2023/06/09 10:37:53;;;;;;;5.53;5.03;;;31.60;99.90;;;;;;5058282;28;20502;-80
2023/06/09 10:40:29;;;;;;;5.10;4.60;;;31.60;99.90;;;;;;5058175;28;20452;-81
2023/06/09 10:43:07;;;;;;;5.20;4.57;;;31.80;99.90;;;;;;5058149;28;20811;-80
2023/06/09 10:45:50;;;;;;;5.57;4.57;;;31.90;99.90;;;;;;5058026;28;20442;-80
2023/06/09 10:48:43;;;;;;;5.40;3.80;;;31.90;99.90;;;;;;5057403;28;20566;-80
2023/06/09 10:51:38;;;;;;;5.20;3.90;;;31.90;99.90;;;;;;5058106;28;20447;-79
2023/06/09 10:54:19;;;;;;;4.60;4.20;;;32.10;99.90;;;;;;5057211;28;20790;-80
2023/06/09 10:56:52;;;;;;;5.27;3.93;;;31.70;99.90;;;;;;5057667;28;20476;-80
2023/06/09 11:00:15;;;;;;;4.43;3.90;;;31.30;99.90;;;;;;5058016;28;20434;-80
2023/06/09 11:02:45;;;;;;;4.90;4.10;;;31.40;99.90;;;;;;5056890;28;20482;-81
2023/06/09 11:05:14;;;;;;;4.33;3.60;;;31.80;99.90;;;;;;5057263;28;20546;-81
2023/06/09 11:07:45;;;;;;;4.37;3.70;;;31.60;99.90;;;;;;5057384;28;20476;-81
2023/06/09 11:10:27;;;;;;;6.10;4.63;;;32.50;99.90;;;;;;5057412;28;20494;-81
2023/06/09 11:12:55;;;;;;;6.60;5.17;;;33.10;99.90;;;;;;5057226;28;20442;-81
2023/06/09 11:15:23;;;;;;;8.50;4.80;;;33.50;99.90;;;;;;5057570;28;20931;-80
2023/06/09 11:17:51;;;;;;;5.00;4.20;;;33.70;99.90;;;;;;5057930;28;20468;-81
2023/06/09 11:20:22;;;;;;;5.30;4.80;;;33.60;99.90;;;;;;5057737;28;20451;-81
2023/06/09 11:23:04;;;;;;;5.77;4.63;;;33.20;99.90;;;;;;5056968;28;20436;-81
2023/06/09 11:25:35;;;;;;;5.53;4.97;;;32.70;99.90;;;;;;5056766;28;20424;-80
2023/06/09 11:28:18;;;;;;;5.40;4.33;;;32.10;99.90;;;;;;5056562;28;20470;-81
2023/06/09 11:31:02;;;;;;;6.97;5.40;;;31.60;99.90;;;;;;5056935;28;20436;-81
2023/06/09 11:33:46;;;;;;;5.00;4.50;;;31.60;99.90;;;;;;5057610;28;20432;-81
2023/06/09 11:36:18;;;;;;;5.03;4.57;;;32.40;99.90;;;;;;5057512;28;20471;-81
2023/06/09 11:38:46;;;;;;;5.03;4.53;;;32.80;99.90;;;;;;5057063;28;20535;-81
2023/06/09 11:41:15;;;;;;;5.17;4.67;;;32.70;99.90;;;;;;5057040;28;20456;-81
2023/06/09 11:43:51;;;;;;;6.83;4.50;;;32.50;99.90;;;;;;5054207;28;20458;-81
2023/06/09 11:46:18;;;;;;;5.10;4.60;;;31.90;99.90;;;;;;5056522;28;20443;-81
2023/06/09 11:48:58;;;;;;;5.27;4.40;;;31.50;99.90;;;;;;5056560;28;20988;-81
2023/06/09 11:51:27;;;;;;;4.90;4.40;;;31.20;99.90;;;;;;5055776;28;20432;-80
2023/06/09 11:53:53;;;;;;;5.77;5.17;;;31.50;99.90;;;;;;5055929;28;20452;-81
2023/06/09 11:56:21;;;;;;;5.87;5.37;;;32.20;99.90;;;;;;5057378;28;20494;-82
2023/06/09 11:58:48;;;;;;;5.20;4.70;;;33.00;99.90;;;;;;5056865;28;20668;-82
2023/06/09 12:01:15;;;;;;;5.93;5.00;;;33.40;99.90;;;;;;5056627;28;20460;-80
2023/06/09 12:03:42;;;;;;;5.50;4.40;;;33.20;99.90;;;;;;5055557;28;20535;-81
2023/06/09 12:06:09;;;;;;;10.90;4.80;;;32.70;99.90;;;;;;5055373;28;20458;-80
2023/06/09 12:08:37;;;;;;;8.43;5.10;;;32.30;99.90;;;;;;5057366;28;20680;-81
2023/06/09 12:11:04;;;;;;;8.03;4.83;;;31.80;99.90;;;;;;5056424;28;20974;-79
2023/06/09 12:13:44;;;;;;;6.10;5.60;;;31.80;99.90;;;;;;5055721;28;20448;-82
2023/06/09 12:16:12;;;;;;;5.83;5.00;;;31.40;99.90;;;;;;5055549;28;20490;-81
2023/06/09 12:18:39;;;;;;;7.50;4.87;;;31.40;99.90;;;;;;5056387;28;20474;-80
2023/06/09 12:21:06;;;;;;;5.10;4.57;;;32.50;99.90;;;;;;5056372;28;20459;-82
2023/06/09 12:23:33;;;;;;;7.70;5.17;;;34.20;99.90;;;;;;5055969;28;20463;-82
2023/06/09 12:26:06;;;;;;;5.17;4.67;;;34.80;99.90;;;;;;5056740;28;20940;-81
2023/06/09 12:28:34;;;;;;;6.07;5.53;;;34.50;99.90;;;;;;5056701;28;20483;-81
2023/06/09 12:31:08;;;;;;;5.20;4.80;;;33.80;99.90;;;;;;5055817;28;20464;-80
2023/06/09 12:33:36;;;;;;;6.13;5.33;;;33.00;99.90;;;;;;5056100;28;20431;-80
2023/06/09 12:36:06;;;;;;;5.63;5.03;;;33.60;99.90;;;;;;5056794;28;20488;-82
2023/06/09 12:38:36;;;;;;;6.50;4.50;;;35.20;99.90;;;;;;5056954;28;20479;-80
2023/06/09 12:41:06;;;;;;;7.90;4.43;;;36.30;99.90;;;;;;5057324;28;20436;-79
2023/06/09 12:43:45;;;;;;;5.23;4.73;;;37.20;99.90;;;;;;5054986;28;20452;-81
2023/06/09 12:46:14;;;;;;;6.27;4.70;;;37.60;99.90;;;;;;5057289;28;20420;-80
2023/06/09 12:48:57;;;;;;;5.33;4.83;;;36.70;99.90;;;;;;5056953;28;20482;-81
2023/06/09 12:51:25;;;;;;;5.37;4.87;;;35.10;99.90;;;;;;5056820;28;20460;-80
2023/06/09 12:53:51;;;;;;;5.23;4.53;;;34.00;99.90;;;;;;5055241;28;20982;-79